createdAt,value
2017-07-27T00:00:11.494Z,1004.42
2017-07-27T00:01:11.552Z,1004.37
2017-07-27T00:02:11.567Z,1004.39
2017-07-27T00:03:11.593Z,1004.36
2017-07-27T00:04:11.627Z,1004.38
2017-07-27T00:05:11.666Z,1004.35
2017-07-27T00:06:11.699Z,1004.36
2017-07-27T00:07:11.723Z,1004.37
2017-07-27T00:08:11.768Z,1004.32
2017-07-27T00:09:11.793Z,1004.3
2017-07-27T00:10:11.854Z,1004.28
2017-07-27T00:11:11.867Z,1004.23
2017-07-27T00:12:11.889Z,1004.26
2017-07-27T00:13:11.933Z,1004.24
2017-07-27T00:14:11.991Z,1004.28
2017-07-27T00:15:11.993Z,1004.3
2017-07-27T00:16:12.054Z,1004.31
2017-07-27T00:17:12.092Z,1004.31
2017-07-27T00:18:12.092Z,1004.29
2017-07-27T00:19:12.137Z,1004.31
2017-07-27T00:20:12.174Z,1004.33
2017-07-27T00:21:12.210Z,1004.33
2017-07-27T00:22:12.234Z,1004.31
2017-07-27T00:23:12.291Z,1004.32
2017-07-27T00:24:12.300Z,1004.32
2017-07-27T00:25:12.359Z,1004.31
2017-07-27T00:26:12.395Z,1004.3
2017-07-27T00:27:12.398Z,1004.32
2017-07-27T00:28:12.474Z,1004.3
2017-07-27T00:29:12.494Z,1004.25
2017-07-27T00:30:12.502Z,1004.3
2017-07-27T00:31:12.535Z,1004.29
2017-07-27T00:32:12.597Z,1004.31
2017-07-27T00:33:12.605Z,1004.29
2017-07-27T00:34:12.665Z,1004.32
2017-07-27T00:35:12.717Z,1004.32
2017-07-27T00:36:12.732Z,1004.35
2017-07-27T00:37:12.736Z,1004.36
2017-07-27T00:38:12.799Z,1004.33
2017-07-27T00:39:12.808Z,1004.32
2017-07-27T00:40:12.842Z,1004.35
2017-07-27T00:41:12.874Z,1004.29
2017-07-27T00:42:12.906Z,1004.24
2017-07-27T00:43:12.944Z,1004.28
2017-07-27T00:44:13.004Z,1004.24
2017-07-27T00:45:13.011Z,1004.28
2017-07-27T00:46:13.066Z,1004.26
2017-07-27T00:47:13.102Z,1004.25
2017-07-27T00:48:13.131Z,1004.21
2017-07-27T00:49:13.152Z,1004.21
2017-07-27T00:50:13.178Z,1004.23
2017-07-27T00:51:13.240Z,1004.22
2017-07-27T00:52:13.242Z,1004.19
2017-07-27T00:53:13.303Z,1004.21
2017-07-27T00:54:13.311Z,1004.24
2017-07-27T00:55:13.370Z,1004.24
2017-07-27T00:56:13.376Z,1004.22
2017-07-27T00:57:13.435Z,1004.25
2017-07-27T00:58:13.440Z,1004.21
2017-07-27T00:59:13.504Z,1004.24
2017-07-27T01:00:13.508Z,1004.25
2017-07-27T01:01:13.551Z,1004.25
2017-07-27T01:02:13.605Z,1004.22
2017-07-27T01:03:13.615Z,1004.23
2017-07-27T01:04:13.647Z,1004.19
2017-07-27T01:05:13.708Z,1004.21
2017-07-27T01:06:13.716Z,1004.16
2017-07-27T01:07:13.745Z,1004.15
2017-07-27T01:08:13.806Z,1004.17
2017-07-27T01:09:13.816Z,1004.24
2017-07-27T01:10:13.845Z,1004.19
2017-07-27T01:11:13.875Z,1004.19
2017-07-27T01:12:13.941Z,1004.18
2017-07-27T01:13:13.974Z,1004.19
2017-07-27T01:14:13.988Z,1004.16
2017-07-27T01:15:14.022Z,1004.12
2017-07-27T01:16:14.053Z,1004.14
2017-07-27T01:17:14.106Z,1004.2
2017-07-27T01:18:14.144Z,1004.19
2017-07-27T01:19:14.158Z,1004.16
2017-07-27T01:20:14.186Z,1004.16
2017-07-27T01:21:14.219Z,1004.15
2017-07-27T01:22:14.249Z,1004.13
2017-07-27T01:23:14.279Z,1004.14
2017-07-27T01:24:14.347Z,1004.08
2017-07-27T01:25:14.356Z,1004.08
2017-07-27T01:26:14.408Z,1004.09
2017-07-27T01:27:14.424Z,1004.1
2017-07-27T01:28:14.457Z,1004.1
2017-07-27T01:29:14.510Z,1004.06
2017-07-27T01:30:14.521Z,1004.05
2017-07-27T01:31:14.579Z,1004.03
2017-07-27T01:32:14.588Z,1004.03
2017-07-27T01:33:14.647Z,1004.01
2017-07-27T01:34:14.657Z,1004.02
2017-07-27T01:35:14.691Z,1004.07
2017-07-27T01:36:14.726Z,1004.01
2017-07-27T01:37:14.782Z,1004
2017-07-27T01:38:14.790Z,1003.95
2017-07-27T01:39:14.851Z,1003.95
2017-07-27T01:40:14.888Z,1003.92
2017-07-27T01:41:14.889Z,1003.95
2017-07-27T01:42:14.926Z,1003.9
2017-07-27T01:43:14.961Z,1003.92
2017-07-27T01:44:14.989Z,1003.92
2017-07-27T01:45:15.024Z,1003.91
2017-07-27T01:46:15.066Z,1003.91
2017-07-27T01:47:15.088Z,1003.92
2017-07-27T01:48:15.149Z,1003.94
2017-07-27T01:49:15.157Z,1003.83
2017-07-27T01:50:15.196Z,1003.82
2017-07-27T01:51:15.254Z,1003.84
2017-07-27T01:52:15.264Z,1003.86
2017-07-27T01:53:15.289Z,1003.85
2017-07-27T01:54:15.354Z,1003.81
2017-07-27T01:55:15.364Z,1003.84
2017-07-27T01:56:15.389Z,1003.83
2017-07-27T01:57:15.432Z,1003.83
2017-07-27T01:58:15.490Z,1003.82
2017-07-27T01:59:15.493Z,1003.86
2017-07-27T02:00:15.751Z,1003.9
2017-07-27T02:01:15.566Z,1003.88
2017-07-27T02:02:15.600Z,1003.86
2017-07-27T02:03:15.631Z,1003.86
2017-07-27T02:04:15.693Z,1003.84
2017-07-27T02:05:15.696Z,1003.85
2017-07-27T02:06:15.757Z,1003.85
2017-07-27T02:07:15.792Z,1003.84
2017-07-27T02:08:15.793Z,1003.84
2017-07-27T02:09:15.855Z,1003.84
2017-07-27T02:10:15.895Z,1003.84
2017-07-27T02:11:15.892Z,1003.84
2017-07-27T02:12:15.933Z,1003.87
2017-07-27T02:13:15.990Z,1003.87
2017-07-27T02:14:16.023Z,1003.85
2017-07-27T02:15:16.030Z,1003.84
2017-07-27T02:16:16.093Z,1003.87
2017-07-27T02:17:16.090Z,1003.87
2017-07-27T02:18:16.157Z,1003.83
2017-07-27T02:19:16.160Z,1003.82
2017-07-27T02:20:16.193Z,1003.78
2017-07-27T02:21:16.257Z,1003.82
2017-07-27T02:22:16.294Z,1003.79
2017-07-27T02:23:16.292Z,1003.81
2017-07-27T02:24:16.336Z,1003.8
2017-07-27T02:25:16.372Z,1003.84
2017-07-27T02:26:16.396Z,1003.78
2017-07-27T02:27:16.427Z,1003.84
2017-07-27T02:28:16.496Z,1003.84
2017-07-27T02:29:16.500Z,1003.84
2017-07-27T02:30:16.556Z,1003.85
2017-07-27T02:31:16.562Z,1003.83
2017-07-27T02:32:16.599Z,1003.88
2017-07-27T02:33:16.659Z,1003.89
2017-07-27T02:34:16.668Z,1003.9
2017-07-27T02:35:16.692Z,1003.91
2017-07-27T02:36:16.756Z,1003.95
2017-07-27T02:37:16.794Z,1003.96
2017-07-27T02:38:16.794Z,1003.91
2017-07-27T02:39:16.856Z,1003.98
2017-07-27T02:40:16.893Z,1003.97
2017-07-27T02:41:16.900Z,1003.93
2017-07-27T02:42:16.931Z,1003.99
2017-07-27T02:43:16.968Z,1003.99
2017-07-27T02:44:17.001Z,1004
2017-07-27T02:45:17.037Z,1004.02
2017-07-27T02:46:17.060Z,1004
2017-07-27T02:47:17.097Z,1004
2017-07-27T02:48:17.160Z,1004
2017-07-27T02:49:17.197Z,1003.98
2017-07-27T02:50:17.193Z,1004
2017-07-27T02:51:17.260Z,1003.97
2017-07-27T02:52:17.297Z,1003.97
2017-07-27T02:53:17.292Z,1003.99
2017-07-27T02:54:17.330Z,1003.96
2017-07-27T02:55:17.396Z,1003.96
2017-07-27T02:56:17.399Z,1003.95
2017-07-27T02:57:17.437Z,1004.01
2017-07-27T02:58:17.459Z,1003.96
2017-07-27T02:59:17.499Z,1004.01
2017-07-27T03:00:17.542Z,1003.99
2017-07-27T03:01:17.567Z,1003.99
2017-07-27T03:02:17.600Z,1004.04
2017-07-27T03:03:17.656Z,1004.01
2017-07-27T03:04:17.671Z,1004
2017-07-27T03:05:17.695Z,1004.01
2017-07-27T03:06:17.731Z,1003.97
2017-07-27T03:07:17.793Z,1003.93
2017-07-27T03:08:17.791Z,1003.98
2017-07-27T03:09:17.825Z,1003.97
2017-07-27T03:10:17.879Z,1003.96
2017-07-27T03:11:17.897Z,1004.02
2017-07-27T03:12:17.954Z,1004.01
2017-07-27T03:13:17.958Z,1004.04
2017-07-27T03:14:17.990Z,1003.99
2017-07-27T03:15:18.055Z,1003.99
2017-07-27T03:16:18.089Z,1004.03
2017-07-27T03:17:18.093Z,1004.07
2017-07-27T03:18:18.154Z,1004.04
2017-07-27T03:19:18.165Z,1003.99
2017-07-27T03:20:18.189Z,1004
2017-07-27T03:21:18.225Z,1003.96
2017-07-27T03:22:18.261Z,1003.97
2017-07-27T03:23:18.289Z,1003.95
2017-07-27T03:24:18.349Z,1003.96
2017-07-27T03:25:18.359Z,1003.99
2017-07-27T03:26:18.390Z,1003.92
2017-07-27T03:27:18.447Z,1003.94
2017-07-27T03:28:18.458Z,1003.96
2017-07-27T03:29:18.485Z,1003.97
2017-07-27T03:30:18.548Z,1003.98
2017-07-27T03:31:18.556Z,1003.99
2017-07-27T03:32:18.589Z,1004
2017-07-27T03:33:18.644Z,1004.02
2017-07-27T03:34:18.678Z,1004.03
2017-07-27T03:35:18.709Z,1003.99
2017-07-27T03:36:18.746Z,1004
2017-07-27T03:37:18.774Z,1004.01
2017-07-27T03:38:18.812Z,1003.98
2017-07-27T03:39:18.817Z,1004.01
2017-07-27T03:40:18.874Z,1004.02
2017-07-27T03:41:18.906Z,1004.02
2017-07-27T03:42:18.941Z,1004.01
2017-07-27T03:43:18.950Z,1003.97
2017-07-27T03:44:18.982Z,1004.05
2017-07-27T03:45:19.018Z,1004.02
2017-07-27T03:46:19.070Z,1004.03
2017-07-27T03:47:19.106Z,1004.09
2017-07-27T03:48:19.111Z,1004.05
2017-07-27T03:49:19.168Z,1004.08
2017-07-27T03:50:19.204Z,1004.09
2017-07-27T03:51:19.238Z,1004.11
2017-07-27T03:52:19.245Z,1004.11
2017-07-27T03:53:19.303Z,1004.06
2017-07-27T03:54:19.310Z,1004.06
2017-07-27T03:55:19.370Z,1004.07
2017-07-27T03:56:19.397Z,1004.08
2017-07-27T03:57:19.432Z,1004.08
2017-07-27T03:58:19.468Z,1004.09
2017-07-27T03:59:19.501Z,1004.07
2017-07-27T04:00:19.601Z,1004.07
2017-07-27T04:01:19.548Z,1004.1
2017-07-27T04:02:19.580Z,1004.13
2017-07-27T04:03:19.605Z,1004.18
2017-07-27T04:04:19.645Z,1004.19
2017-07-27T04:05:19.678Z,1004.19
2017-07-27T04:06:19.713Z,1004.18
2017-07-27T04:07:19.743Z,1004.19
2017-07-27T04:08:19.774Z,1004.15
2017-07-27T04:09:19.805Z,1004.17
2017-07-27T04:10:19.838Z,1004.18
2017-07-27T04:11:19.874Z,1004.21
2017-07-27T04:12:19.903Z,1004.2
2017-07-27T04:13:19.938Z,1004.15
2017-07-27T04:14:19.969Z,1004.16
2017-07-27T04:15:20.005Z,1004.15
2017-07-27T04:16:20.037Z,1004.14
2017-07-27T04:17:20.068Z,1004.17
2017-07-27T04:18:20.101Z,1004.17
2017-07-27T04:19:20.149Z,1004.11
2017-07-27T04:20:20.167Z,1004.17
2017-07-27T04:21:20.200Z,1004.14
2017-07-27T04:22:20.232Z,1004.17
2017-07-27T04:23:20.268Z,1004.15
2017-07-27T04:24:20.301Z,1004.1
2017-07-27T04:25:20.330Z,1004.13
2017-07-27T04:26:20.362Z,1004.14
2017-07-27T04:27:20.409Z,1004.16
2017-07-27T04:28:20.428Z,1004.15
2017-07-27T04:29:20.461Z,1004.14
2017-07-27T04:30:20.495Z,1004.2
2017-07-27T04:31:20.525Z,1004.19
2017-07-27T04:32:20.560Z,1004.18
2017-07-27T04:33:20.593Z,1004.17
2017-07-27T04:34:20.624Z,1004.12
2017-07-27T04:35:20.656Z,1004.14
2017-07-27T04:36:20.693Z,1004.14
2017-07-27T04:37:20.722Z,1004.12
2017-07-27T04:38:20.757Z,1004.13
2017-07-27T04:39:20.788Z,1004.15
2017-07-27T04:40:20.825Z,1004.17
2017-07-27T04:41:20.856Z,1004.14
2017-07-27T04:42:20.891Z,1004.15
2017-07-27T04:43:20.923Z,1004.17
2017-07-27T04:44:20.954Z,1004.15
2017-07-27T04:45:20.987Z,1004.14
2017-07-27T04:46:21.023Z,1004.18
2017-07-27T04:47:21.054Z,1004.15
2017-07-27T04:48:21.094Z,1004.18
2017-07-27T04:49:21.119Z,1004.22
2017-07-27T04:50:21.153Z,1004.27
2017-07-27T04:51:21.187Z,1004.22
2017-07-27T04:52:21.220Z,1004.22
2017-07-27T04:53:21.238Z,1004.24
2017-07-27T04:54:21.286Z,1004.21
2017-07-27T04:55:21.316Z,1004.11
2017-07-27T04:56:21.350Z,1004.16
2017-07-27T04:57:21.382Z,1004.14
2017-07-27T04:58:21.415Z,1004.11
2017-07-27T04:59:21.450Z,1004.11
2017-07-27T05:00:21.484Z,1004.09
2017-07-27T05:01:21.498Z,1004.05
2017-07-27T05:02:21.751Z,1004.09
2017-07-27T05:03:21.584Z,1004.09
2017-07-27T05:04:21.616Z,1004.08
2017-07-27T05:05:21.660Z,1004.08
2017-07-27T05:06:21.671Z,1004.05
2017-07-27T05:07:21.720Z,1004.07
2017-07-27T05:08:21.764Z,1004.1
2017-07-27T05:09:21.782Z,1004.17
2017-07-27T05:10:21.968Z,1004.2
2017-07-27T05:11:21.852Z,1004.18
2017-07-27T05:12:21.888Z,1004.21
2017-07-27T05:13:21.928Z,1004.24
2017-07-27T05:14:21.951Z,1004.28
2017-07-27T05:15:21.987Z,1004.25
2017-07-27T05:16:22.017Z,1004.25
2017-07-27T05:17:22.053Z,1004.26
2017-07-27T05:18:22.091Z,1004.22
2017-07-27T05:19:22.125Z,1004.29
2017-07-27T05:20:22.154Z,1004.28
2017-07-27T05:21:22.192Z,1004.3
2017-07-27T05:22:22.210Z,1004.31
2017-07-27T05:23:22.236Z,1004.29
2017-07-27T05:24:22.273Z,1004.3
2017-07-27T05:25:22.326Z,1004.32
2017-07-27T05:26:22.347Z,1004.36
2017-07-27T05:27:22.389Z,1004.37
2017-07-27T05:28:22.424Z,1004.4
2017-07-27T05:29:22.458Z,1004.44
2017-07-27T05:30:22.846Z,1004.36
2017-07-27T05:31:22.527Z,1004.41
2017-07-27T05:32:22.559Z,1004.39
2017-07-27T05:33:22.597Z,1004.34
2017-07-27T05:34:22.632Z,1004.4
2017-07-27T05:35:22.663Z,1004.44
2017-07-27T05:36:22.702Z,1004.47
2017-07-27T05:37:22.736Z,1004.37
2017-07-27T05:38:22.767Z,1004.41
2017-07-27T05:39:22.808Z,1004.41
2017-07-27T05:40:22.845Z,1004.4
2017-07-27T05:41:22.882Z,1004.41
2017-07-27T05:42:22.898Z,1004.44
2017-07-27T05:43:22.951Z,1004.41
2017-07-27T05:44:22.986Z,1004.43
2017-07-27T05:45:23.017Z,1004.42
2017-07-27T05:46:23.062Z,1004.39
2017-07-27T05:47:23.094Z,1004.43
2017-07-27T05:48:23.132Z,1004.44
2017-07-27T05:49:23.162Z,1004.48
2017-07-27T05:50:23.202Z,1004.47
2017-07-27T05:51:23.238Z,1004.36
2017-07-27T05:52:23.262Z,1004.37
2017-07-27T05:53:23.292Z,1004.36
2017-07-27T05:54:23.350Z,1004.44
2017-07-27T05:55:23.385Z,1004.42
2017-07-27T05:56:23.421Z,1004.44
2017-07-27T05:57:23.459Z,1004.37
2017-07-27T05:58:23.494Z,1004.41
2017-07-27T05:59:23.527Z,1004.35
2017-07-27T06:00:23.559Z,1004.33
2017-07-27T06:01:23.600Z,1004.39
2017-07-27T06:02:23.639Z,1004.37
2017-07-27T06:03:23.675Z,1004.35
2017-07-27T06:04:23.714Z,1004.39
2017-07-27T06:05:23.748Z,1004.43
2017-07-27T06:06:23.770Z,1004.42
2017-07-27T06:07:23.820Z,1004.38
2017-07-27T06:08:23.859Z,1004.39
2017-07-27T06:09:23.892Z,1004.38
2017-07-27T06:10:23.931Z,1004.4
2017-07-27T06:11:23.966Z,1004.36
2017-07-27T06:12:24.003Z,1004.36
2017-07-27T06:13:24.039Z,1004.35
2017-07-27T06:14:24.071Z,1004.42
2017-07-27T06:15:24.109Z,1004.47
2017-07-27T06:16:24.148Z,1004.43
2017-07-27T06:17:24.167Z,1004.38
2017-07-27T06:18:24.221Z,1004.42
2017-07-27T06:19:24.254Z,1004.56
2017-07-27T06:20:24.291Z,1004.57
2017-07-27T06:21:24.317Z,1004.56
2017-07-27T06:22:24.366Z,1004.54
2017-07-27T06:23:24.414Z,1004.59
2017-07-27T06:24:24.440Z,1004.59
2017-07-27T06:25:24.476Z,1004.6
2017-07-27T06:26:24.513Z,1004.52
2017-07-27T06:27:24.527Z,1004.54
2017-07-27T06:28:24.585Z,1004.62
2017-07-27T06:29:24.609Z,1004.63
2017-07-27T06:30:24.967Z,1004.68
2017-07-27T06:31:24.679Z,1004.65
2017-07-27T06:32:24.740Z,1004.59
2017-07-27T06:33:24.780Z,1004.58
2017-07-27T06:34:24.800Z,1004.56
2017-07-27T06:35:24.859Z,1004.57
2017-07-27T06:36:24.895Z,1004.55
2017-07-27T06:37:24.922Z,1004.43
2017-07-27T06:38:24.980Z,1004.5
2017-07-27T06:39:25.015Z,1004.49
2017-07-27T06:40:25.054Z,1004.5
2017-07-27T06:41:25.095Z,1004.51
2017-07-27T06:42:25.137Z,1004.51
2017-07-27T06:43:25.171Z,1004.51
2017-07-27T06:44:25.221Z,1004.47
2017-07-27T06:45:25.237Z,1004.52
2017-07-27T06:46:25.293Z,1004.46
2017-07-27T06:47:25.337Z,1004.44
2017-07-27T06:48:25.449Z,1004.46
2017-07-27T06:49:25.420Z,1004.42
2017-07-27T06:50:25.464Z,1004.47
2017-07-27T06:51:25.503Z,1004.47
2017-07-27T06:52:25.548Z,1004.46
2017-07-27T06:53:25.592Z,1004.44
2017-07-27T06:54:25.636Z,1004.44
2017-07-27T06:55:25.681Z,1004.41
2017-07-27T06:56:25.717Z,1004.44
2017-07-27T06:57:25.761Z,1004.44
2017-07-27T06:58:25.799Z,1004.53
2017-07-27T06:59:25.847Z,1004.43
2017-07-27T07:00:25.893Z,1004.39
2017-07-27T07:01:25.928Z,1004.44
2017-07-27T07:02:25.969Z,1004.4
2017-07-27T07:03:26.015Z,1004.44
2017-07-27T07:04:26.054Z,1004.4
2017-07-27T07:05:26.096Z,1004.4
2017-07-27T07:06:26.141Z,1004.43
2017-07-27T07:07:26.183Z,1004.42
2017-07-27T07:08:26.228Z,1004.47
2017-07-27T07:09:26.273Z,1004.43
2017-07-27T07:10:26.315Z,1004.47
2017-07-27T07:11:26.361Z,1004.41
2017-07-27T07:12:26.398Z,1004.42
2017-07-27T07:13:26.446Z,1004.51
2017-07-27T07:14:26.487Z,1004.47
2017-07-27T07:15:26.535Z,1004.49
2017-07-27T07:16:26.673Z,1004.48
2017-07-27T07:17:26.620Z,1004.54
2017-07-27T07:18:26.663Z,1004.54
2017-07-27T07:19:26.694Z,1004.54
2017-07-27T07:20:26.747Z,1004.56
2017-07-27T07:21:26.797Z,1004.49
2017-07-27T07:22:26.837Z,1004.47
2017-07-27T07:23:26.890Z,1004.48
2017-07-27T07:24:26.928Z,1004.45
2017-07-27T07:25:26.974Z,1004.44
2017-07-27T07:26:27.017Z,1004.48
2017-07-27T07:27:27.063Z,1004.43
2017-07-27T07:28:27.083Z,1004.44
2017-07-27T07:29:27.148Z,1004.41
2017-07-27T07:30:27.196Z,1004.46
2017-07-27T07:31:27.238Z,1004.49
2017-07-27T07:32:27.290Z,1004.43
2017-07-27T07:33:27.330Z,1004.44
2017-07-27T07:34:27.372Z,1004.48
2017-07-27T07:35:27.419Z,1004.42
2017-07-27T07:36:27.466Z,1004.43
2017-07-27T07:37:27.487Z,1004.45
2017-07-27T07:38:27.554Z,1004.45
2017-07-27T07:39:27.599Z,1004.48
2017-07-27T07:40:27.641Z,1004.46
2017-07-27T07:41:27.690Z,1004.52
2017-07-27T07:42:27.733Z,1004.46
2017-07-27T07:43:27.785Z,1004.53
2017-07-27T07:44:27.826Z,1004.54
2017-07-27T07:45:27.867Z,1004.55
2017-07-27T07:46:27.897Z,1004.5
2017-07-27T07:47:27.960Z,1004.51
2017-07-27T07:48:27.998Z,1004.54
2017-07-27T07:49:28.049Z,1004.5
2017-07-27T07:50:28.094Z,1004.52
2017-07-27T07:51:28.128Z,1004.52
2017-07-27T07:52:28.187Z,1004.49
2017-07-27T07:53:28.216Z,1004.48
2017-07-27T07:54:28.275Z,1004.58
2017-07-27T07:55:28.321Z,1004.64
2017-07-27T07:56:28.369Z,1004.68
2017-07-27T07:57:28.408Z,1004.65
2017-07-27T07:58:28.458Z,1004.63
2017-07-27T07:59:28.483Z,1004.61
2017-07-27T08:00:28.547Z,1004.65
2017-07-27T08:01:28.597Z,1004.66
2017-07-27T08:02:28.643Z,1004.7
2017-07-27T08:03:28.690Z,1004.77
2017-07-27T08:04:28.732Z,1004.78
2017-07-27T08:05:28.780Z,1004.78
2017-07-27T08:06:28.824Z,1004.79
2017-07-27T08:07:28.869Z,1004.84
2017-07-27T08:08:28.920Z,1004.88
2017-07-27T08:09:28.960Z,1004.93
2017-07-27T08:10:29.008Z,1004.87
2017-07-27T08:11:29.061Z,1004.88
2017-07-27T08:12:29.084Z,1004.9
2017-07-27T08:13:29.144Z,1004.89
2017-07-27T08:14:29.197Z,1004.91
2017-07-27T08:15:29.242Z,1004.87
2017-07-27T08:16:29.302Z,1004.86
2017-07-27T08:17:29.582Z,1004.85
2017-07-27T08:18:29.379Z,1004.86
2017-07-27T08:19:29.429Z,1004.8
2017-07-27T08:20:29.475Z,1004.88
2017-07-27T08:21:29.518Z,1004.84
2017-07-27T08:22:29.569Z,1004.91
2017-07-27T08:23:29.614Z,1004.88
2017-07-27T08:24:29.661Z,1004.92
2017-07-27T08:25:29.710Z,1004.96
2017-07-27T08:26:29.760Z,1004.98
2017-07-27T08:27:29.804Z,1004.99
2017-07-27T08:28:29.853Z,1005.03
2017-07-27T08:29:29.901Z,1005.02
2017-07-27T08:30:29.942Z,1005.02
2017-07-27T08:31:29.987Z,1005.03
2017-07-27T08:32:30.040Z,1005.11
2017-07-27T08:33:30.087Z,1005.1
2017-07-27T08:34:30.135Z,1005.17
2017-07-27T08:35:30.167Z,1005.16
2017-07-27T08:36:30.232Z,1005.13
2017-07-27T08:37:30.277Z,1005.21
2017-07-27T08:38:30.322Z,1005.23
2017-07-27T08:39:30.374Z,1005.11
2017-07-27T08:40:30.409Z,1005.09
2017-07-27T08:41:30.470Z,1005.1
2017-07-27T08:42:30.509Z,1004.96
2017-07-27T08:43:30.567Z,1004.65
2017-07-27T08:44:30.603Z,1004.5
2017-07-27T08:45:30.643Z,1004.47
2017-07-27T08:46:30.712Z,1004.43
2017-07-27T08:47:30.756Z,1004.49
2017-07-27T08:48:30.806Z,1004.54
2017-07-27T08:49:30.848Z,1004.53
2017-07-27T08:50:30.896Z,1004.54
2017-07-27T08:51:30.945Z,1004.52
2017-07-27T08:52:30.991Z,1004.51
2017-07-27T08:53:31.043Z,1004.51
2017-07-27T08:54:31.085Z,1004.54
2017-07-27T08:55:31.124Z,1004.47
2017-07-27T08:56:31.170Z,1004.59
2017-07-27T08:57:31.222Z,1004.55
2017-07-27T08:58:31.268Z,1004.54
2017-07-27T08:59:31.314Z,1004.53
2017-07-27T09:00:31.349Z,1004.51
2017-07-27T09:01:31.399Z,1004.47
2017-07-27T09:02:31.441Z,1004.48
2017-07-27T09:03:31.486Z,1004.53
2017-07-27T09:04:31.508Z,1004.49
2017-07-27T09:05:31.563Z,1004.44
2017-07-27T09:06:31.615Z,1004.48
2017-07-27T09:07:31.661Z,1004.49
2017-07-27T09:08:31.705Z,1004.51
2017-07-27T09:09:31.746Z,1004.52
2017-07-27T09:10:31.792Z,1004.63
2017-07-27T09:11:31.832Z,1004.5
2017-07-27T09:12:31.879Z,1004.53
2017-07-27T09:13:32.068Z,1005.1
2017-07-27T09:14:31.962Z,1005.35
2017-07-27T09:15:32.008Z,1005.11
2017-07-27T09:16:32.053Z,1005.15
2017-07-27T09:17:32.100Z,1004.64
2017-07-27T09:18:32.137Z,1004.81
2017-07-27T09:19:32.180Z,1005.2
2017-07-27T09:20:32.211Z,1005.36
2017-07-27T09:21:32.266Z,1005.18
2017-07-27T09:22:32.312Z,1005.34
2017-07-27T09:23:32.349Z,1005.28
2017-07-27T09:24:32.401Z,1005.1
2017-07-27T09:25:32.448Z,1004.72
2017-07-27T09:26:32.490Z,1004.71
2017-07-27T09:27:32.539Z,1005.2
2017-07-27T09:28:32.578Z,1004.96
2017-07-27T09:29:32.625Z,1004.79
2017-07-27T09:30:32.664Z,1004.91
2017-07-27T09:31:32.717Z,1004.95
2017-07-27T09:32:32.768Z,1004.4
2017-07-27T09:33:32.823Z,1004.07
2017-07-27T09:34:32.862Z,1004.29
2017-07-27T09:35:32.908Z,1004.16
2017-07-27T09:36:32.957Z,1004.17
2017-07-27T09:37:33.002Z,1004.18
2017-07-27T09:38:33.050Z,1004.12
2017-07-27T09:39:33.073Z,1004.09
2017-07-27T09:40:33.141Z,1004.15
2017-07-27T09:41:33.186Z,1004.3
2017-07-27T09:42:33.237Z,1004.32
2017-07-27T09:43:33.277Z,1004.49
2017-07-27T09:44:33.317Z,1004.53
2017-07-27T09:45:33.363Z,1004.45
2017-07-27T09:46:33.406Z,1004.41
2017-07-27T09:47:33.436Z,1004.38
2017-07-27T09:48:33.496Z,1004.37
2017-07-27T09:49:33.541Z,1004.42
2017-07-27T09:50:33.581Z,1004.45
2017-07-27T09:51:33.632Z,1004.41
2017-07-27T09:52:33.659Z,1004.28
2017-07-27T09:53:33.713Z,1004.18
2017-07-27T09:54:33.759Z,1004.23
2017-07-27T09:55:33.798Z,1004.31
2017-07-27T09:56:33.839Z,1004.4
2017-07-27T09:57:34.203Z,1004.33
2017-07-27T09:58:33.932Z,1004.31
2017-07-27T09:59:33.970Z,1004.28
2017-07-27T10:00:34.015Z,1004.24
2017-07-27T10:01:34.054Z,1004.3
2017-07-27T10:02:34.097Z,1004.22
2017-07-27T10:03:34.140Z,1004.23
2017-07-27T10:04:34.185Z,1004.25
2017-07-27T10:05:34.228Z,1004.19
2017-07-27T10:06:34.269Z,1004.21
2017-07-27T10:07:34.309Z,1004.21
2017-07-27T10:08:34.351Z,1004.18
2017-07-27T10:09:34.396Z,1004.21
2017-07-27T10:10:34.436Z,1004.17
2017-07-27T10:11:34.482Z,1004.24
2017-07-27T10:12:34.516Z,1004.3
2017-07-27T10:13:34.558Z,1004.26
2017-07-27T10:14:34.603Z,1004.22
2017-07-27T10:15:34.647Z,1004.24
2017-07-27T10:16:34.683Z,1004.19
2017-07-27T10:17:34.730Z,1004.19
2017-07-27T10:18:34.766Z,1004.15
2017-07-27T10:19:34.806Z,1004.16
2017-07-27T10:20:34.847Z,1004.15
2017-07-27T10:21:34.891Z,1004.08
2017-07-27T10:22:34.932Z,1004.12
2017-07-27T10:23:34.987Z,1004.13
2017-07-27T10:24:35.012Z,1004.12
2017-07-27T10:25:35.030Z,1004.08
2017-07-27T10:26:35.094Z,1004.09
2017-07-27T10:27:35.137Z,1004.1
2017-07-27T10:28:35.173Z,1004.08
2017-07-27T10:29:35.212Z,1004.11
2017-07-27T10:30:35.252Z,1004.12
2017-07-27T10:31:35.289Z,1004.09
2017-07-27T10:32:35.335Z,1004.16
2017-07-27T10:33:35.381Z,1004.16
2017-07-27T10:34:35.411Z,1004.19
2017-07-27T10:35:35.459Z,1004.2
2017-07-27T10:36:35.500Z,1004.21
2017-07-27T10:37:35.534Z,1004.23
2017-07-27T10:38:35.579Z,1004.16
2017-07-27T10:39:35.622Z,1004.2
2017-07-27T10:40:35.655Z,1004.18
2017-07-27T10:41:35.694Z,1004.14
2017-07-27T10:42:35.736Z,1004.16
2017-07-27T10:43:35.771Z,1004.18
2017-07-27T10:44:35.814Z,1004.17
2017-07-27T10:45:35.860Z,1004.2
2017-07-27T10:46:35.890Z,1004.2
2017-07-27T10:47:35.929Z,1004.2
2017-07-27T10:48:35.990Z,1004.21
2017-07-27T10:49:36.007Z,1004.19
2017-07-27T10:50:36.045Z,1004.19
2017-07-27T10:51:36.085Z,1004.23
2017-07-27T10:52:36.128Z,1004.22
2017-07-27T10:53:36.142Z,1004.27
2017-07-27T10:54:36.199Z,1004.32
2017-07-27T10:55:36.242Z,1004.3
2017-07-27T10:56:36.279Z,1004.34
2017-07-27T10:57:36.322Z,1004.33
2017-07-27T10:58:36.353Z,1004.35
2017-07-27T10:59:36.393Z,1004.36
2017-07-27T11:00:36.432Z,1004.36
2017-07-27T11:01:36.470Z,1004.37
2017-07-27T11:02:36.511Z,1004.35
2017-07-27T11:03:36.527Z,1004.37
2017-07-27T11:04:36.591Z,1004.39
2017-07-27T11:05:36.631Z,1004.39
2017-07-27T11:06:36.661Z,1004.38
2017-07-27T11:07:36.697Z,1004.32
2017-07-27T11:08:36.740Z,1004.37
2017-07-27T11:09:36.780Z,1004.29
2017-07-27T11:10:36.821Z,1004.33
2017-07-27T11:11:36.852Z,1004.31
2017-07-27T11:12:36.894Z,1004.34
2017-07-27T11:13:36.938Z,1004.3
2017-07-27T11:14:36.971Z,1004.35
2017-07-27T11:15:37.008Z,1004.35
2017-07-27T11:16:37.043Z,1004.38
2017-07-27T11:17:37.088Z,1004.39
2017-07-27T11:18:37.127Z,1004.38
2017-07-27T11:19:37.149Z,1004.38
2017-07-27T11:20:37.203Z,1004.34
2017-07-27T11:21:37.240Z,1004.38
2017-07-27T11:22:37.274Z,1004.38
2017-07-27T11:23:37.314Z,1004.41
2017-07-27T11:24:37.333Z,1004.38
2017-07-27T11:25:37.387Z,1004.42
2017-07-27T11:26:37.426Z,1004.4
2017-07-27T11:27:37.466Z,1004.39
2017-07-27T11:28:37.506Z,1004.4
2017-07-27T11:29:37.525Z,1004.44
2017-07-27T11:30:37.580Z,1004.44
2017-07-27T11:31:37.622Z,1004.44
2017-07-27T11:32:37.661Z,1004.38
2017-07-27T11:33:37.693Z,1004.39
2017-07-27T11:34:37.733Z,1004.34
2017-07-27T11:35:37.770Z,1004.4
2017-07-27T11:36:37.806Z,1004.43
2017-07-27T11:37:37.825Z,1004.41
2017-07-27T11:38:37.887Z,1004.36
2017-07-27T11:39:37.924Z,1004.44
2017-07-27T11:40:37.962Z,1004.38
2017-07-27T11:41:37.999Z,1004.38
2017-07-27T11:42:38.036Z,1004.45
2017-07-27T11:43:38.076Z,1004.39
2017-07-27T11:44:38.097Z,1004.41
2017-07-27T11:45:38.138Z,1004.42
2017-07-27T11:46:38.186Z,1004.39
2017-07-27T11:47:38.225Z,1004.41
2017-07-27T11:48:38.264Z,1004.46
2017-07-27T11:49:38.299Z,1004.45
2017-07-27T11:50:38.341Z,1004.48
2017-07-27T11:51:38.375Z,1004.48
2017-07-27T11:52:38.409Z,1004.48
2017-07-27T11:53:38.436Z,1004.42
2017-07-27T11:54:38.488Z,1004.45
2017-07-27T11:55:38.525Z,1004.43
2017-07-27T11:56:38.564Z,1004.45
2017-07-27T11:57:38.597Z,1004.49
2017-07-27T11:58:38.641Z,1004.52
2017-07-27T11:59:38.675Z,1004.54
2017-07-27T12:00:38.716Z,1004.48
2017-07-27T12:01:38.752Z,1004.55
2017-07-27T12:02:38.768Z,1004.53
2017-07-27T12:03:38.827Z,1004.52
2017-07-27T12:04:38.864Z,1004.54
2017-07-27T12:05:38.905Z,1004.57
2017-07-27T12:06:38.976Z,1004.52
2017-07-27T12:07:38.974Z,1004.55
2017-07-27T12:08:38.998Z,1004.58